Terminal Aerodrome Forecast
Issued by NWS

Home | Current Version | Previous Version | Text Only | Print | Product List | Glossary On
Versions: 1 2 3 4 5 6 7 8 9 10 11 12
000
FTUS43 KGRR 291700 RRA
TAFAZO
TAF
KAZO 291744Z 2918/3018 20018G30KT 4SM -RA BR SCT035 OVC060
     FM292000 18021G32KT 3SM -RA BR OVC020
     FM292100 19021G32KT 3SM -DZ BR OVC015
     FM292300 21022G32KT 4SM -SHRA OVC015
     FM300300 26014G22KT P6SM SCT015 BKN035
     FM300700 28012G22KT P6SM FEW035=

USA.gov is the U.S. government's official web portal to all federal, state and local government web resources and services.